Time;durP1;ratioP1;P1;durP2;ratioP2;P2;SDS_P1;SDS_P2;PMS_P1;PMS_P2;Temp;Humidity;BMP_temperature;BMP_pressure;BME280_temperature;BME280_humidity;BME280_pressure;Samples;Min_cycle;Max_cycle;Signal;HPM_P1;HPM_P2
2021/10/16 00:00:45;;;;;;;3.33;3.13;;;8.90;99.90;;;;;;5020202;28;20219;-75
2021/10/16 00:03:12;;;;;;;3.20;3.00;;;8.80;99.90;;;;;;5020137;28;21350;-75
2021/10/16 00:05:40;;;;;;;3.50;3.20;;;8.80;99.90;;;;;;5021656;28;20227;-75
2021/10/16 00:08:07;;;;;;;3.35;3.10;;;8.80;99.90;;;;;;5018978;28;20285;-75
2021/10/16 00:10:34;;;;;;;3.88;3.58;;;8.80;99.90;;;;;;5021328;28;20721;-75
2021/10/16 00:13:01;;;;;;;3.10;2.90;;;8.70;99.90;;;;;;5018391;28;20223;-76
2021/10/16 00:15:29;;;;;;;2.95;2.65;;;8.70;99.90;;;;;;5020751;28;20215;-75
2021/10/16 00:17:57;;;;;;;3.50;3.20;;;8.60;99.90;;;;;;5016900;28;20224;-75
2021/10/16 00:20:24;;;;;;;3.15;2.90;;;8.60;99.90;;;;;;5020253;28;20219;-76
2021/10/16 00:22:53;;;;;;;3.67;3.45;;;8.60;99.90;;;;;;5038951;22;20262;-74
2021/10/16 00:25:20;;;;;;;4.00;2.65;;;8.60;99.90;;;;;;5057720;28;20226;-70
2021/10/16 00:27:47;;;;;;;3.25;3.00;;;8.60;99.90;;;;;;5058556;28;20218;-72
2021/10/16 00:30:14;;;;;;;3.03;2.83;;;8.60;99.90;;;;;;5058463;28;20668;-71
2021/10/16 00:32:41;;;;;;;3.08;2.75;;;8.60;99.90;;;;;;5055842;28;20455;-74
2021/10/16 00:35:09;;;;;;;3.10;2.90;;;8.60;99.90;;;;;;5060045;28;20225;-72
2021/10/16 00:37:36;;;;;;;2.90;2.70;;;8.60;99.90;;;;;;5061232;28;20275;-71
2021/10/16 00:40:06;;;;;;;3.20;3.00;;;8.60;99.90;;;;;;5058533;28;20226;-71
2021/10/16 00:42:43;;;;;;;3.15;2.88;;;8.60;99.90;;;;;;5068749;28;20239;-72
2021/10/16 00:45:10;;;;;;;3.40;3.10;;;8.60;99.90;;;;;;5059904;28;20233;-71
2021/10/16 00:47:37;;;;;;;3.60;3.30;;;8.60;99.90;;;;;;5056420;28;20226;-70
2021/10/16 00:50:04;;;;;;;3.00;2.80;;;8.60;99.90;;;;;;5057671;28;20700;-71
2021/10/16 00:52:31;;;;;;;3.20;2.90;;;8.50;99.90;;;;;;5060525;28;20873;-72
2021/10/16 00:54:59;;;;;;;3.35;3.15;;;8.50;99.90;;;;;;5062618;28;20230;-71
2021/10/16 00:57:28;;;;;;;3.03;2.83;;;8.50;99.90;;;;;;5058393;28;20273;-71
2021/10/16 00:59:55;;;;;;;3.45;3.25;;;8.40;99.90;;;;;;5014466;28;20230;-72
2021/10/16 01:02:22;;;;;;;3.63;3.30;;;8.40;99.90;;;;;;5057777;28;20226;-72
2021/10/16 01:04:50;;;;;;;2.90;2.70;;;8.40;99.90;;;;;;5053866;28;20234;-72
2021/10/16 01:07:17;;;;;;;2.97;2.78;;;8.40;99.90;;;;;;5059402;28;20218;-71
2021/10/16 01:09:44;;;;;;;2.95;2.75;;;8.40;99.90;;;;;;5053965;28;20730;-72
2021/10/16 01:12:12;;;;;;;3.70;3.40;;;8.40;99.90;;;;;;5054760;28;20359;-70
2021/10/16 01:14:45;;;;;;;3.72;3.42;;;8.40;99.90;;;;;;5057422;28;20221;-74
2021/10/16 01:17:13;;;;;;;3.25;2.95;;;8.40;99.90;;;;;;5059394;28;20283;-72
2021/10/16 01:19:43;;;;;;;3.45;3.25;;;8.30;99.90;;;;;;5056489;28;20230;-74
2021/10/16 01:22:12;;;;;;;3.20;3.00;;;8.30;99.90;;;;;;5059323;28;20222;-73
2021/10/16 01:24:39;;;;;;;3.20;2.90;;;8.30;99.90;;;;;;5066224;28;20229;-72
2021/10/16 01:27:08;;;;;;;3.50;3.28;;;8.20;99.90;;;;;;5056226;28;20227;-71
2021/10/16 01:29:37;;;;;;;3.28;2.97;;;8.20;99.90;;;;;;5059579;28;20221;-71
2021/10/16 01:32:05;;;;;;;4.13;3.10;;;8.20;99.90;;;;;;5049116;28;20226;-71
2021/10/16 01:34:32;;;;;;;4.40;3.42;;;8.10;99.90;;;;;;5056542;28;20237;-71
2021/10/16 01:37:24;;;;;;;2.95;2.75;;;8.10;99.90;;;;;;5055786;28;20825;-73
2021/10/16 01:39:51;;;;;;;3.00;2.80;;;8.10;99.90;;;;;;5053501;28;20297;-72
2021/10/16 01:42:18;;;;;;;3.60;3.30;;;8.10;99.90;;;;;;5052744;28;20222;-72
2021/10/16 01:44:45;;;;;;;3.58;3.28;;;8.20;99.90;;;;;;5055672;28;20226;-73
2021/10/16 01:47:12;;;;;;;3.60;3.30;;;8.10;99.90;;;;;;5055309;28;20238;-72
2021/10/16 01:49:39;;;;;;;3.10;2.90;;;8.10;99.90;;;;;;5055676;28;20684;-75
2021/10/16 01:52:06;;;;;;;3.47;3.17;;;8.10;99.90;;;;;;5048266;28;20222;-71
2021/10/16 01:54:35;;;;;;;2.95;2.75;;;8.00;99.90;;;;;;5058827;28;20223;-72
2021/10/16 01:57:02;;;;;;;3.45;3.15;;;8.00;99.90;;;;;;5057656;28;20230;-72
2021/10/16 01:59:29;;;;;;;3.00;2.80;;;8.00;99.90;;;;;;5060916;28;20569;-71
2021/10/16 02:01:57;;;;;;;3.58;3.28;;;8.00;99.90;;;;;;5056758;28;20281;-74
2021/10/16 02:04:24;;;;;;;3.22;2.95;;;8.00;99.90;;;;;;5051750;28;20650;-75
2021/10/16 02:06:51;;;;;;;3.20;2.90;;;8.00;99.90;;;;;;5054149;28;20250;-71
2021/10/16 02:09:18;;;;;;;3.70;3.40;;;8.00;99.90;;;;;;5064471;28;20218;-71
2021/10/16 02:11:46;;;;;;;3.30;3.08;;;8.00;99.90;;;;;;5062738;28;20801;-71
2021/10/16 02:14:14;;;;;;;3.50;3.20;;;8.00;99.90;;;;;;5057270;28;20233;-72
2021/10/16 02:16:41;;;;;;;3.42;3.13;;;8.10;99.90;;;;;;5052547;28;20218;-72
2021/10/16 02:19:08;;;;;;;3.13;2.92;;;8.10;99.90;;;;;;5058902;28;20263;-71
2021/10/16 02:21:35;;;;;;;3.35;3.15;;;8.10;99.90;;;;;;5052617;28;20279;-74
2021/10/16 02:24:02;;;;;;;3.30;3.00;;;8.00;99.90;;;;;;5054913;28;20668;-72
2021/10/16 02:26:29;;;;;;;3.60;3.30;;;8.00;99.90;;;;;;5059297;28;20657;-70
2021/10/16 02:28:58;;;;;;;3.75;3.00;;;8.00;99.90;;;;;;5057218;28;20282;-72
2021/10/16 02:31:25;;;;;;;3.28;3.08;;;8.00;99.90;;;;;;5030828;28;20272;-72
2021/10/16 02:33:52;;;;;;;3.22;3.03;;;8.00;99.90;;;;;;5055188;28;20230;-71
2021/10/16 02:36:19;;;;;;;2.95;2.75;;;8.00;99.90;;;;;;5053409;28;20242;-70
2021/10/16 02:38:46;;;;;;;3.17;2.97;;;7.90;99.90;;;;;;5053510;28;20222;-74
2021/10/16 02:41:13;;;;;;;3.55;3.25;;;7.90;99.90;;;;;;5052985;28;20226;-72
2021/10/16 02:43:40;;;;;;;2.88;2.67;;;7.90;99.90;;;;;;5049409;28;20215;-70
2021/10/16 02:46:08;;;;;;;3.13;2.92;;;7.90;99.90;;;;;;5060262;28;20219;-71
2021/10/16 02:48:35;;;;;;;3.35;3.15;;;7.90;99.90;;;;;;5057287;28;20222;-72
2021/10/16 02:51:02;;;;;;;3.30;3.10;;;7.90;99.90;;;;;;5063866;28;20230;-71
2021/10/16 02:53:29;;;;;;;3.60;3.30;;;7.80;99.90;;;;;;5054309;28;20280;-73
2021/10/16 02:55:56;;;;;;;3.72;3.42;;;7.80;99.90;;;;;;5056621;28;20716;-70
2021/10/16 02:58:23;;;;;;;3.22;3.03;;;7.80;99.90;;;;;;5054046;28;20295;-72
2021/10/16 03:00:50;;;;;;;3.20;3.00;;;7.70;99.90;;;;;;5055011;28;20230;-71
2021/10/16 03:03:19;;;;;;;2.95;2.75;;;7.70;99.90;;;;;;5057601;28;20219;-74
2021/10/16 03:05:46;;;;;;;2.97;2.78;;;7.70;99.90;;;;;;5062555;28;20670;-71
2021/10/16 03:08:13;;;;;;;3.20;3.00;;;7.70;99.90;;;;;;5060205;28;20217;-71
2021/10/16 03:10:40;;;;;;;3.22;2.92;;;7.80;99.90;;;;;;5055849;28;20215;-72
2021/10/16 03:13:07;;;;;;;3.10;2.90;;;7.80;99.90;;;;;;5051285;28;20257;-73
2021/10/16 03:15:34;;;;;;;3.42;3.22;;;7.70;99.90;;;;;;5058478;28;20291;-71
2021/10/16 03:18:01;;;;;;;3.10;2.90;;;7.80;99.90;;;;;;5058691;28;20271;-72
2021/10/16 03:20:29;;;;;;;3.00;2.80;;;7.80;99.90;;;;;;5063586;28;20696;-72
2021/10/16 03:22:56;;;;;;;3.00;2.80;;;7.80;99.90;;;;;;5061106;28;20218;-74
2021/10/16 03:25:23;;;;;;;3.08;2.88;;;7.80;99.90;;;;;;5060020;28;20275;-74
2021/10/16 03:27:50;;;;;;;3.17;2.92;;;7.70;99.90;;;;;;5061073;28;20304;-72
2021/10/16 03:30:17;;;;;;;2.70;2.50;;;7.70;99.90;;;;;;5057933;28;20712;-71
2021/10/16 03:32:44;;;;;;;3.25;3.05;;;7.70;99.90;;;;;;5060099;28;20226;-71
2021/10/16 03:35:11;;;;;;;3.83;3.40;;;7.70;99.90;;;;;;5056717;28;20705;-72
2021/10/16 03:37:40;;;;;;;3.40;3.20;;;7.70;99.90;;;;;;5057165;28;20276;-72
2021/10/16 03:40:08;;;;;;;3.03;2.83;;;7.70;99.90;;;;;;5060074;28;20234;-71
2021/10/16 03:42:35;;;;;;;3.38;3.17;;;7.60;99.90;;;;;;5060047;28;20704;-69
2021/10/16 03:45:02;;;;;;;3.08;2.78;;;7.60;99.90;;;;;;5057533;28;20312;-70
2021/10/16 03:47:29;;;;;;;2.92;2.72;;;7.50;99.90;;;;;;5056156;28;20234;-71
2021/10/16 03:49:56;;;;;;;3.00;2.80;;;7.50;99.90;;;;;;5058026;28;20279;-71
2021/10/16 03:52:23;;;;;;;3.42;3.13;;;7.50;99.90;;;;;;5060680;28;24108;-69
2021/10/16 03:54:51;;;;;;;2.92;2.72;;;7.50;99.90;;;;;;5057863;28;20222;-70
2021/10/16 03:57:18;;;;;;;2.85;2.65;;;7.50;99.90;;;;;;5056848;28;20218;-70
2021/10/16 03:59:45;;;;;;;3.25;3.05;;;7.50;99.90;;;;;;5059576;28;20817;-72
2021/10/16 04:02:12;;;;;;;3.20;3.00;;;7.50;99.90;;;;;;5058224;28;20225;-70
2021/10/16 04:04:40;;;;;;;2.97;2.78;;;7.50;99.90;;;;;;5062245;28;20234;-70
2021/10/16 04:07:07;;;;;;;3.30;3.10;;;7.40;99.90;;;;;;5056572;28;20267;-70
2021/10/16 04:09:34;;;;;;;2.83;2.63;;;7.50;99.90;;;;;;5062731;28;20280;-72
2021/10/16 04:12:03;;;;;;;2.70;2.50;;;7.50;99.90;;;;;;5063521;28;20230;-70
2021/10/16 04:14:29;;;;;;;3.20;2.90;;;7.50;99.90;;;;;;5062906;28;20226;-75
2021/10/16 04:16:56;;;;;;;3.10;2.90;;;7.50;99.90;;;;;;5061793;28;20222;-73
2021/10/16 04:19:23;;;;;;;3.15;2.95;;;7.50;99.90;;;;;;5057081;28;20222;-70
2021/10/16 04:21:50;;;;;;;2.80;2.60;;;7.50;99.90;;;;;;5063299;28;20233;-72
2021/10/16 04:24:19;;;;;;;3.10;2.90;;;7.40;99.90;;;;;;5058435;28;20643;-73
2021/10/16 04:26:46;;;;;;;3.30;3.00;;;7.40;99.90;;;;;;5061819;28;20688;-73
2021/10/16 04:29:15;;;;;;;5.38;3.00;;;7.40;99.90;;;;;;5056816;28;20222;-70
2021/10/16 04:31:42;;;;;;;2.97;2.78;;;7.40;99.90;;;;;;5056431;28;20271;-72
2021/10/16 04:34:09;;;;;;;2.53;2.42;;;7.30;99.90;;;;;;5058150;28;20226;-71
2021/10/16 04:36:36;;;;;;;2.70;2.50;;;7.30;99.90;;;;;;5058478;28;20268;-71
2021/10/16 04:39:05;;;;;;;3.85;2.90;;;7.30;99.90;;;;;;5058778;28;20230;-70
2021/10/16 04:41:32;;;;;;;2.90;2.58;;;7.30;99.90;;;;;;5061089;28;20225;-73
2021/10/16 04:43:59;;;;;;;2.80;2.60;;;7.30;99.90;;;;;;5056268;28;20230;-70
2021/10/16 04:46:28;;;;;;;2.80;2.60;;;7.30;99.90;;;;;;5059472;28;20224;-70
2021/10/16 04:48:55;;;;;;;3.08;2.78;;;7.30;99.90;;;;;;5060360;28;20476;-71
2021/10/16 04:51:22;;;;;;;2.80;2.60;;;7.20;99.90;;;;;;5056738;28;20222;-72
2021/10/16 04:53:50;;;;;;;2.80;2.60;;;7.20;99.90;;;;;;5060503;28;20295;-71
2021/10/16 04:56:17;;;;;;;2.72;2.53;;;7.20;99.90;;;;;;5059783;28;20217;-72
2021/10/16 04:58:44;;;;;;;2.88;2.67;;;7.20;99.90;;;;;;5056511;28;20713;-70
2021/10/16 05:01:11;;;;;;;3.10;2.90;;;7.20;99.90;;;;;;5056854;28;20217;-70
2021/10/16 05:03:39;;;;;;;3.03;2.83;;;7.10;99.90;;;;;;5055574;28;20222;-72
2021/10/16 05:06:06;;;;;;;2.72;2.53;;;7.10;99.90;;;;;;5059701;28;20218;-73
2021/10/16 05:08:35;;;;;;;3.13;2.92;;;7.10;99.90;;;;;;5056764;28;20707;-70
2021/10/16 05:11:02;;;;;;;2.88;2.67;;;7.10;99.90;;;;;;5059507;28;20319;-72
2021/10/16 05:13:29;;;;;;;2.53;2.35;;;7.10;99.90;;;;;;5053296;28;20287;-71
2021/10/16 05:15:56;;;;;;;2.67;2.25;;;7.00;99.90;;;;;;5060974;28;21113;-71
2021/10/16 05:18:23;;;;;;;2.92;2.72;;;7.00;99.90;;;;;;5056816;28;20268;-71
2021/10/16 05:20:52;;;;;;;2.83;2.63;;;7.00;99.90;;;;;;5056750;28;20721;-71
2021/10/16 05:23:19;;;;;;;3.00;2.78;;;7.00;99.90;;;;;;5052330;28;20312;-70
2021/10/16 05:25:46;;;;;;;2.85;2.65;;;7.00;99.90;;;;;;5055494;28;20565;-71
2021/10/16 05:28:13;;;;;;;2.78;2.60;;;6.90;99.90;;;;;;5060014;28;20583;-71
2021/10/16 05:30:41;;;;;;;3.03;2.83;;;6.90;99.90;;;;;;5056978;28;20853;-72
2021/10/16 05:33:08;;;;;;;3.22;3.03;;;6.90;99.90;;;;;;5058559;28;20231;-71
2021/10/16 05:35:35;;;;;;;3.00;2.70;;;6.90;99.90;;;;;;5052105;28;20709;-71
2021/10/16 05:38:03;;;;;;;3.00;2.80;;;6.90;99.90;;;;;;5055903;28;20233;-71
2021/10/16 05:40:30;;;;;;;2.80;2.60;;;6.90;99.90;;;;;;5061741;28;20226;-72
2021/10/16 05:42:57;;;;;;;2.67;2.58;;;6.80;99.90;;;;;;5060018;28;20279;-70
2021/10/16 05:45:24;;;;;;;2.95;2.75;;;6.80;99.90;;;;;;5056205;28;20287;-73
2021/10/16 05:47:51;;;;;;;3.13;2.92;;;6.80;99.90;;;;;;5058139;28;20237;-71
2021/10/16 05:50:18;;;;;;;2.92;2.72;;;6.90;99.90;;;;;;5058368;28;20223;-71
2021/10/16 05:52:45;;;;;;;2.63;2.50;;;6.80;99.90;;;;;;5057937;28;20222;-71
2021/10/16 05:55:14;;;;;;;3.08;2.88;;;6.90;99.90;;;;;;5054700;28;20226;-70
2021/10/16 05:57:41;;;;;;;2.72;2.53;;;6.90;99.90;;;;;;5060277;28;20226;-72
2021/10/16 06:00:09;;;;;;;2.92;2.72;;;6.90;99.90;;;;;;5054877;28;20275;-69
2021/10/16 06:02:36;;;;;;;2.70;2.50;;;6.90;99.90;;;;;;5063080;28;20281;-70
2021/10/16 06:05:03;;;;;;;3.28;3.00;;;6.90;99.90;;;;;;5060339;28;20298;-71
2021/10/16 06:07:30;;;;;;;3.13;2.92;;;6.90;99.90;;;;;;5063521;28;20263;-70
2021/10/16 06:09:57;;;;;;;3.03;2.83;;;6.90;99.90;;;;;;5063263;28;20222;-72
2021/10/16 06:12:26;;;;;;;2.75;2.55;;;6.90;99.90;;;;;;5038484;28;20715;-70
2021/10/16 06:14:53;;;;;;;3.00;2.80;;;7.00;99.90;;;;;;5059790;28;20226;-71
2021/10/16 06:17:20;;;;;;;2.83;2.63;;;7.00;99.90;;;;;;5055133;28;20230;-70
2021/10/16 06:19:47;;;;;;;2.92;2.72;;;7.00;99.90;;;;;;5060454;28;20763;-71
2021/10/16 06:22:14;;;;;;;2.75;2.55;;;7.00;99.90;;;;;;5061943;28;20226;-70
2021/10/16 06:24:41;;;;;;;2.80;2.60;;;7.00;99.90;;;;;;5061420;28;20217;-70
2021/10/16 06:27:08;;;;;;;3.08;2.88;;;7.00;99.90;;;;;;5062679;28;20987;-70
2021/10/16 06:29:36;;;;;;;2.53;2.42;;;7.00;99.90;;;;;;5060661;28;20218;-70
2021/10/16 06:32:04;;;;;;;3.00;2.80;;;7.00;99.90;;;;;;5063779;28;20550;-71
2021/10/16 06:34:31;;;;;;;3.20;3.00;;;7.00;99.90;;;;;;5061433;28;20225;-71
2021/10/16 06:36:58;;;;;;;3.10;2.90;;;7.10;99.90;;;;;;5092675;22;20224;-89
2021/10/16 06:39:25;;;;;;;3.67;3.38;;;7.10;99.90;;;;;;5063953;28;20228;-92
2021/10/16 06:41:52;;;;;;;3.20;2.90;;;7.10;99.90;;;;;;5098427;28;20566;-90
2021/10/16 06:44:20;;;;;;;2.63;2.42;;;7.10;99.90;;;;;;5084991;28;20237;-90
2021/10/16 06:46:48;;;;;;;4.88;3.70;;;7.10;99.90;;;;;;5083854;28;20247;-92
2021/10/16 06:49:16;;;;;;;3.53;3.22;;;7.10;99.90;;;;;;5095924;28;20256;-92
2021/10/16 06:51:43;;;;;;;3.28;3.05;;;7.30;99.90;;;;;;5089625;28;20217;-92
2021/10/16 06:54:12;;;;;;;4.68;3.88;;;7.90;99.90;;;;;;5087548;28;20221;-91
2021/10/16 06:56:40;;;;;;;5.47;4.32;;;8.80;99.90;;;;;;5087961;28;20226;-92
2021/10/16 06:59:09;;;;;;;3.85;3.55;;;9.80;99.90;;;;;;5079221;28;20221;-90
2021/10/16 07:01:36;;;;;;;5.40;4.13;;;10.60;99.90;;;;;;5085491;28;20228;-91
2021/10/16 07:04:07;;;;;;;4.00;3.60;;;11.30;99.90;;;;;;5083268;28;20230;-91
2021/10/16 07:06:35;;;;;;;4.13;3.80;;;11.90;99.90;;;;;;5087416;28;20232;-91
2021/10/16 07:09:02;;;;;;;3.83;3.15;;;12.40;99.90;;;;;;5089646;28;20237;-92
2021/10/16 07:11:29;;;;;;;4.80;3.75;;;12.80;99.90;;;;;;5077584;28;20226;-90
2021/10/16 07:13:57;;;;;;;3.92;3.63;;;13.10;99.90;;;;;;5090560;28;20221;-93
2021/10/16 07:16:24;;;;;;;4.97;4.35;;;13.40;99.90;;;;;;5089635;28;20218;-92
2021/10/16 07:18:52;;;;;;;7.80;3.92;;;13.70;99.90;;;;;;5082767;28;20226;-94
2021/10/16 07:21:21;;;;;;;4.15;3.75;;;13.90;99.90;;;;;;5094861;28;20228;-91
2021/10/16 07:23:48;;;;;;;4.05;3.65;;;14.10;99.90;;;;;;5101601;28;20228;-91
2021/10/16 07:26:15;;;;;;;3.47;3.17;;;14.30;99.90;;;;;;5110903;28;20229;-92
2021/10/16 07:28:44;;;;;;;3.50;3.20;;;14.40;99.90;;;;;;5087134;28;20237;-92
2021/10/16 07:33:59;;;;;;;4.00;3.53;;;14.80;99.90;;;;;;4976754;28;20274;-89
2021/10/16 07:36:32;;;;;;;3.92;3.35;;;15.00;99.90;;;;;;5084983;23;20216;-74
2021/10/16 07:38:59;;;;;;;3.80;3.40;;;15.10;99.90;;;;;;5090196;28;20228;-73
2021/10/16 07:41:26;;;;;;;3.33;3.03;;;15.30;99.90;;;;;;5092426;28;20636;-75
2021/10/16 07:43:53;;;;;;;3.08;2.80;;;15.40;99.90;;;;;;5091300;28;20227;-74
2021/10/16 07:46:20;;;;;;;3.72;3.20;;;15.60;99.90;;;;;;5095296;27;20228;-73
2021/10/16 07:48:48;;;;;;;3.58;2.95;;;15.40;99.90;;;;;;5094849;28;20748;-77
2021/10/16 07:51:15;;;;;;;3.35;3.15;;;15.70;99.90;;;;;;5095578;28;20584;-76
2021/10/16 07:53:44;;;;;;;3.08;2.88;;;15.90;99.90;;;;;;5094390;28;20811;-72
2021/10/16 07:56:11;;;;;;;3.90;3.30;;;16.00;99.90;;;;;;5094245;28;20228;-77
2021/10/16 07:58:39;;;;;;;4.63;3.80;;;16.30;99.90;;;;;;5089179;27;20265;-77
2021/10/16 08:01:07;;;;;;;3.55;3.25;;;16.20;99.90;;;;;;5088126;27;20326;-75
2021/10/16 08:03:34;;;;;;;3.15;2.90;;;16.10;99.90;;;;;;5090775;28;20297;-77
2021/10/16 08:06:01;;;;;;;2.63;2.42;;;16.00;99.90;;;;;;5090551;28;20815;-76
2021/10/16 08:08:28;;;;;;;3.55;2.80;;;15.90;99.90;;;;;;5090878;27;20221;-77
2021/10/16 08:10:57;;;;;;;2.97;2.67;;;15.80;99.90;;;;;;5079371;27;20233;-75
2021/10/16 08:13:26;;;;;;;3.10;2.80;;;16.00;99.90;;;;;;5078207;28;20303;-75
2021/10/16 08:15:54;;;;;;;2.65;2.40;;;16.20;99.90;;;;;;5095712;27;20656;-74
2021/10/16 08:18:21;;;;;;;3.25;2.95;;;16.40;99.90;;;;;;5095288;28;20278;-76
2021/10/16 08:20:48;;;;;;;3.60;2.72;;;16.50;99.90;;;;;;5090270;28;20220;-76
2021/10/16 08:23:15;;;;;;;5.43;2.63;;;16.50;99.90;;;;;;5067488;28;20220;-77
2021/10/16 08:25:42;;;;;;;2.97;2.55;;;16.50;99.90;;;;;;5092894;28;20654;-73
2021/10/16 08:28:13;;;;;;;2.80;2.60;;;16.60;99.90;;;;;;5087321;28;20225;-74
2021/10/16 08:30:43;;;;;;;3.42;3.13;;;16.30;99.90;;;;;;5089459;28;20767;-73
2021/10/16 08:33:10;;;;;;;3.92;3.13;;;15.90;99.90;;;;;;5090772;28;20245;-73
2021/10/16 08:35:37;;;;;;;4.22;3.83;;;15.60;99.90;;;;;;5083806;27;20320;-74
2021/10/16 08:38:04;;;;;;;4.07;3.17;;;15.50;99.90;;;;;;5086753;28;20713;-74
2021/10/16 08:40:31;;;;;;;3.55;3.25;;;15.40;99.90;;;;;;5093056;27;20225;-73
2021/10/16 08:42:58;;;;;;;3.65;3.22;;;15.60;99.90;;;;;;5089398;28;20273;-77
2021/10/16 08:45:27;;;;;;;3.30;3.00;;;15.60;99.90;;;;;;5089939;28;20710;-77
2021/10/16 08:47:55;;;;;;;3.80;3.25;;;16.00;99.90;;;;;;5093590;28;21118;-77
2021/10/16 08:50:25;;;;;;;3.22;2.95;;;16.40;99.90;;;;;;5092177;27;20316;-76
2021/10/16 08:52:52;;;;;;;3.28;2.83;;;16.90;99.90;;;;;;5091550;28;20224;-77
2021/10/16 08:55:19;;;;;;;3.75;3.28;;;17.30;99.90;;;;;;5089421;28;22839;-76
2021/10/16 08:57:47;;;;;;;3.28;2.97;;;17.20;99.90;;;;;;5093600;28;20229;-77
2021/10/16 09:00:44;;;;;;;3.72;3.33;;;17.30;99.90;;;;;;5088934;28;20224;-76
2021/10/16 09:03:23;;;;;;;3.10;2.80;;;17.40;99.90;;;;;;5092041;28;20307;-77
2021/10/16 09:06:05;;;;;;;3.22;2.85;;;17.50;99.90;;;;;;5090114;27;20232;-76
2021/10/16 09:08:34;;;;;;;3.80;3.38;;;17.80;99.90;;;;;;5093054;27;20241;-76
2021/10/16 09:11:22;;;;;;;3.65;3.35;;;18.20;99.90;;;;;;5063254;27;20771;-77
2021/10/16 09:13:51;;;;;;;4.70;3.50;;;18.50;99.90;;;;;;5090773;27;20227;-77
2021/10/16 09:16:40;;;;;;;2.90;2.70;;;18.40;99.90;;;;;;5092523;28;20205;-76
2021/10/16 09:19:15;;;;;;;2.97;2.70;;;18.40;99.90;;;;;;5098008;28;20466;-76
2021/10/16 09:21:47;;;;;;;2.92;2.72;;;18.40;99.90;;;;;;5084360;27;20712;-75
2021/10/16 09:24:19;;;;;;;3.20;2.70;;;18.10;99.90;;;;;;5091375;27;20714;-77
2021/10/16 09:26:50;;;;;;;3.08;2.78;;;18.10;99.90;;;;;;5090975;27;20236;-75
2021/10/16 09:29:19;;;;;;;2.80;2.60;;;18.10;99.90;;;;;;5088877;28;20234;-77
2021/10/16 09:31:49;;;;;;;3.30;3.00;;;18.00;99.90;;;;;;5090793;27;20232;-76
2021/10/16 09:34:27;;;;;;;3.00;2.80;;;18.00;99.90;;;;;;5085981;28;20212;-76
2021/10/16 09:37:02;;;;;;;2.72;2.50;;;18.20;99.90;;;;;;5090093;28;20683;-76
2021/10/16 09:39:29;;;;;;;3.75;3.30;;;18.50;99.90;;;;;;5091702;28;20314;-76
2021/10/16 09:41:57;;;;;;;3.28;2.97;;;18.60;99.90;;;;;;5092215;27;20224;-76
2021/10/16 09:44:26;;;;;;;3.53;2.63;;;18.50;99.90;;;;;;5088094;28;20228;-76
2021/10/16 09:47:03;;;;;;;3.47;2.95;;;18.50;99.90;;;;;;5088686;28;20225;-76
2021/10/16 09:49:32;;;;;;;3.40;3.10;;;18.60;99.90;;;;;;5088475;28;20236;-77
2021/10/16 09:52:00;;;;;;;3.35;2.90;;;18.60;99.90;;;;;;5085411;28;20376;-77
2021/10/16 09:54:30;;;;;;;3.28;3.03;;;18.90;99.90;;;;;;5087750;28;20289;-78
2021/10/16 09:56:58;;;;;;;3.05;2.85;;;19.10;99.90;;;;;;5089353;28;20213;-77
2021/10/16 09:59:26;;;;;;;3.45;3.10;;;19.10;99.90;;;;;;5083326;28;20213;-78
2021/10/16 10:01:55;;;;;;;3.13;2.83;;;18.80;99.90;;;;;;5080091;28;20301;-77
2021/10/16 10:04:25;;;;;;;3.30;3.08;;;18.70;99.90;;;;;;5083181;28;20303;-77
2021/10/16 10:06:56;;;;;;;3.40;2.90;;;18.70;99.90;;;;;;5088381;28;20244;-77
2021/10/16 10:09:24;;;;;;;3.17;2.88;;;18.40;99.90;;;;;;5106614;27;20225;-77
2021/10/16 10:11:53;;;;;;;3.25;2.95;;;18.60;99.90;;;;;;5108942;28;20221;-78
2021/10/16 10:14:21;;;;;;;3.40;2.65;;;18.90;99.90;;;;;;5089178;28;20867;-76
2021/10/16 10:16:49;;;;;;;3.95;2.88;;;19.00;99.90;;;;;;5086162;28;20314;-76
2021/10/16 10:19:17;;;;;;;3.20;2.90;;;18.90;99.90;;;;;;5091692;28;20222;-77
2021/10/16 10:21:46;;;;;;;5.55;3.20;;;18.70;99.90;;;;;;5090509;28;20220;-77
2021/10/16 10:24:13;;;;;;;3.97;2.72;;;19.00;99.90;;;;;;5090384;28;20677;-77
2021/10/16 10:26:42;;;;;;;2.83;2.60;;;18.70;99.90;;;;;;5086577;28;20224;-76
2021/10/16 10:29:10;;;;;;;4.85;3.25;;;18.70;99.90;;;;;;5081626;28;20801;-77
2021/10/16 10:31:58;;;;;;;3.25;2.70;;;19.00;99.90;;;;;;5087585;28;20224;-77
2021/10/16 10:34:29;;;;;;;2.80;2.53;;;19.20;99.90;;;;;;5086655;28;20231;-77
2021/10/16 10:37:01;;;;;;;2.80;2.47;;;19.00;99.90;;;;;;5085005;28;20244;-75
2021/10/16 10:39:56;;;;;;;2.60;2.40;;;18.80;99.90;;;;;;5088642;28;20225;-76
2021/10/16 10:42:49;;;;;;;3.50;2.60;;;18.70;99.90;;;;;;5088266;28;20225;-76
2021/10/16 10:45:41;;;;;;;3.00;2.65;;;18.70;99.90;;;;;;5093416;28;20241;-76
2021/10/16 10:48:18;;;;;;;2.65;2.40;;;18.90;99.90;;;;;;5088828;28;20209;-79
2021/10/16 10:51:01;;;;;;;2.85;2.58;;;19.20;99.90;;;;;;5091207;28;20266;-76
2021/10/16 10:53:36;;;;;;;2.80;2.60;;;19.50;99.90;;;;;;5090615;28;20269;-77
2021/10/16 10:56:20;;;;;;;2.75;2.55;;;19.70;99.90;;;;;;5089894;28;20236;-75
2021/10/16 10:59:08;;;;;;;3.10;2.80;;;19.80;99.90;;;;;;5088098;28;20217;-77
2021/10/16 11:01:49;;;;;;;2.60;2.40;;;19.80;99.90;;;;;;5084332;28;20397;-76
2021/10/16 11:04:43;;;;;;;2.30;2.05;;;19.70;99.90;;;;;;5084660;28;20660;-76
2021/10/16 11:07:13;;;;;;;2.60;2.40;;;19.70;99.90;;;;;;5105842;28;20255;-76
2021/10/16 11:09:43;;;;;;;2.85;2.55;;;19.80;99.90;;;;;;5090820;28;20232;-76
2021/10/16 11:12:12;;;;;;;2.85;2.65;;;19.70;99.90;;;;;;5094811;28;20231;-76
2021/10/16 11:14:41;;;;;;;2.80;2.55;;;19.30;99.90;;;;;;5089150;28;20213;-76
2021/10/16 11:17:09;;;;;;;2.72;2.53;;;19.30;99.90;;;;;;5092462;28;20739;-76
2021/10/16 11:19:51;;;;;;;4.40;2.50;;;19.30;99.90;;;;;;5092542;27;20302;-76
2021/10/16 11:22:19;;;;;;;2.72;2.53;;;19.50;99.90;;;;;;5093392;28;20633;-76
2021/10/16 11:24:47;;;;;;;3.25;2.83;;;19.40;99.90;;;;;;5093598;28;20306;-76
2021/10/16 11:27:22;;;;;;;2.65;2.30;;;19.50;99.90;;;;;;5093302;27;20237;-77
2021/10/16 11:29:49;;;;;;;2.80;2.60;;;19.50;99.90;;;;;;5092118;27;21418;-74
2021/10/16 11:32:21;;;;;;;2.38;2.17;;;19.50;99.90;;;;;;5092992;28;20810;-76
2021/10/16 11:35:00;;;;;;;2.85;2.65;;;19.30;99.90;;;;;;5093718;28;20262;-74
2021/10/16 11:37:39;;;;;;;2.72;2.53;;;19.30;99.90;;;;;;5092501;27;20281;-76
2021/10/16 11:40:09;;;;;;;2.50;2.30;;;19.30;99.90;;;;;;5093827;27;20209;-76
2021/10/16 11:42:38;;;;;;;4.40;2.90;;;19.50;99.90;;;;;;5093429;28;20221;-76
2021/10/16 11:45:11;;;;;;;2.58;2.33;;;19.80;99.90;;;;;;5095263;27;20228;-74
2021/10/16 11:47:39;;;;;;;2.70;2.50;;;19.80;99.90;;;;;;5093275;28;20315;-76
2021/10/16 11:50:11;;;;;;;2.33;2.13;;;19.70;99.90;;;;;;5092048;27;20447;-76
2021/10/16 11:52:39;;;;;;;2.65;2.45;;;19.50;99.90;;;;;;5089390;28;20224;-76
2021/10/16 11:55:17;;;;;;;2.40;2.20;;;19.50;99.90;;;;;;5093101;28;20753;-76
2021/10/16 11:57:44;;;;;;;2.83;2.50;;;19.60;99.90;;;;;;5090218;28;20587;-76
2021/10/16 12:00:26;;;;;;;2.72;2.53;;;19.70;99.90;;;;;;5092735;28;20216;-76
2021/10/16 12:02:54;;;;;;;2.22;2.03;;;19.70;99.90;;;;;;5099153;28;20227;-76
2021/10/16 12:05:22;;;;;;;3.20;2.45;;;19.80;99.90;;;;;;5087522;28;20221;-77
2021/10/16 12:07:51;;;;;;;2.72;2.28;;;19.70;99.90;;;;;;5087539;28;20381;-76
2021/10/16 12:10:22;;;;;;;2.13;1.92;;;19.70;99.90;;;;;;5093902;28;21251;-75
2021/10/16 12:13:03;;;;;;;2.17;1.90;;;19.60;99.90;;;;;;5084266;28;20890;-74
2021/10/16 12:15:35;;;;;;;1.90;1.80;;;19.70;99.90;;;;;;5091787;27;20476;-74
2021/10/16 12:18:04;;;;;;;2.83;1.80;;;19.80;99.90;;;;;;5092931;28;20221;-76
2021/10/16 12:20:42;;;;;;;5.57;2.60;;;19.90;99.90;;;;;;5089725;27;20303;-75
2021/10/16 12:23:09;;;;;;;2.40;2.20;;;19.90;99.90;;;;;;5095125;28;20228;-76
2021/10/16 12:25:48;;;;;;;2.15;2.00;;;19.60;99.90;;;;;;5089375;28;20224;-76
2021/10/16 12:28:16;;;;;;;4.35;2.25;;;19.40;99.90;;;;;;5091531;28;20293;-76
2021/10/16 12:31:16;;;;;;;2.33;2.13;;;19.40;99.90;;;;;;5091717;27;20227;-75
2021/10/16 12:34:04;;;;;;;2.03;1.90;;;19.30;99.90;;;;;;5094240;27;20307;-76
2021/10/16 12:36:32;;;;;;;2.40;2.20;;;19.30;99.90;;;;;;5101388;22;20221;-74
2021/10/16 12:39:00;;;;;;;4.38;2.35;;;19.40;99.90;;;;;;5068074;28;20769;-77
2021/10/16 12:41:35;;;;;;;1.70;1.60;;;19.30;99.90;;;;;;5065200;28;20364;-75
2021/10/16 12:44:17;;;;;;;1.92;1.80;;;19.20;99.90;;;;;;5069126;28;20592;-76
2021/10/16 12:46:45;;;;;;;1.83;1.73;;;19.30;99.90;;;;;;5065217;28;20225;-73
2021/10/16 12:49:31;;;;;;;2.38;1.85;;;19.50;99.90;;;;;;5066297;28;20295;-73
2021/10/16 12:51:59;;;;;;;2.08;1.80;;;19.80;99.90;;;;;;5062908;28;20221;-77
2021/10/16 12:54:34;;;;;;;1.83;1.73;;;20.00;99.90;;;;;;5071103;28;20240;-74
2021/10/16 12:57:11;;;;;;;3.08;2.15;;;20.00;99.90;;;;;;5062448;28;20237;-73
2021/10/16 12:59:39;;;;;;;4.25;2.17;;;20.00;99.90;;;;;;5066638;28;20224;-72
2021/10/16 13:02:07;;;;;;;2.17;1.98;;;19.70;99.90;;;;;;5064489;28;20218;-76
2021/10/16 13:04:42;;;;;;;2.00;1.90;;;19.40;99.90;;;;;;5068286;28;20291;-75
2021/10/16 13:07:09;;;;;;;3.08;1.77;;;19.40;99.90;;;;;;5055994;28;20751;-75